createdAt,value
2023-01-29T00:00:06.015Z,-0.99
2023-01-29T00:02:32.316Z,-1.00
2023-01-29T00:04:59.142Z,-1.06
2023-01-29T00:07:25.597Z,-0.84
2023-01-29T00:09:51.911Z,-0.80
2023-01-29T00:12:18.258Z,-0.89
2023-01-29T00:14:44.572Z,-0.88
2023-01-29T00:17:10.939Z,-0.98
2023-01-29T00:19:37.314Z,-1.05
2023-01-29T00:22:03.751Z,-0.99
2023-01-29T00:24:30.162Z,-0.90
2023-01-29T00:26:56.495Z,-0.97
2023-01-29T00:29:22.811Z,-1.04
2023-01-29T00:31:49.389Z,-1.11
2023-01-29T00:34:15.926Z,-1.04
2023-01-29T00:36:42.327Z,-1.09
2023-01-29T00:39:08.666Z,-1.18
2023-01-29T00:41:34.974Z,-1.12
2023-01-29T00:44:01.783Z,-1.03
2023-01-29T00:46:28.293Z,-1.03
2023-01-29T00:48:54.682Z,-1.03
2023-01-29T00:51:20.997Z,-0.88
2023-01-29T00:53:47.316Z,-0.85
2023-01-29T00:56:13.623Z,-0.94
2023-01-29T00:58:39.923Z,-0.97
2023-01-29T01:01:06.243Z,-0.97
2023-01-29T01:03:32.560Z,-0.96
2023-01-29T01:06:06.284Z,-0.89
2023-01-29T01:08:33.005Z,-0.97
2023-01-29T01:11:04.994Z,-0.99
2023-01-29T01:13:32.978Z,-1.12
2023-01-29T01:15:59.964Z,-1.09
2023-01-29T01:18:29.922Z,-1.09
2023-01-29T01:20:59.353Z,-1.00
2023-01-29T01:23:25.784Z,-1.09
2023-01-29T01:25:52.099Z,-1.15
2023-01-29T01:28:18.414Z,-1.17
2023-01-29T01:30:44.736Z,-1.16
2023-01-29T01:33:11.148Z,-1.16
2023-01-29T01:35:39.097Z,-1.12
2023-01-29T01:38:05.418Z,-1.15
2023-01-29T01:40:31.961Z,-1.15
2023-01-29T01:42:59.960Z,-1.03
2023-01-29T01:45:35.267Z,-0.93
2023-01-29T01:48:04.639Z,-0.92
2023-01-29T01:51:03.360Z,-1.00
2023-01-29T01:53:39.776Z,-0.94
2023-01-29T01:56:11.235Z,-1.09
2023-01-29T01:58:43.229Z,-0.95
2023-01-29T02:01:11.188Z,-1.01
2023-01-29T02:03:44.415Z,-1.07
2023-01-29T02:06:11.433Z,-1.05
2023-01-29T02:08:49.693Z,-1.10
2023-01-29T02:11:19.741Z,-1.09
2023-01-29T02:13:50.046Z,-1.11
2023-01-29T02:16:16.342Z,-1.02
2023-01-29T02:18:46.156Z,-1.11
2023-01-29T02:21:31.292Z,-1.20
2023-01-29T02:24:11.318Z,-1.15
2023-01-29T02:26:48.354Z,-1.08
2023-01-29T02:29:43.826Z,-1.03
2023-01-29T02:32:31.526Z,-1.07
2023-01-29T02:35:00.919Z,-1.01
2023-01-29T02:37:36.050Z,-1.14
2023-01-29T02:40:14.641Z,-1.19
2023-01-29T02:43:07.888Z,-1.12
2023-01-29T02:45:50.254Z,-1.00
2023-01-29T02:48:20.480Z,-1.05
2023-01-29T02:50:59.323Z,-1.12
2023-01-29T02:53:32.826Z,-1.15
2023-01-29T02:56:10.299Z,-1.07
2023-01-29T02:58:42.692Z,-1.14
2023-01-29T03:03:40.517Z,-1.24
2023-01-29T03:06:15.164Z,-1.15
2023-01-29T03:08:43.230Z,-1.05
2023-01-29T03:11:14.719Z,-0.98
2023-01-29T03:14:05.551Z,-0.92
2023-01-29T03:16:44.776Z,-0.98
2023-01-29T03:19:14.061Z,-1.16
2023-01-29T03:21:47.748Z,-1.23
2023-01-29T03:24:16.222Z,-1.07
2023-01-29T03:26:43.811Z,-1.10
2023-01-29T03:29:12.282Z,-1.17
2023-01-29T03:31:38.768Z,-1.03
2023-01-29T03:34:13.672Z,-1.00
2023-01-29T03:36:46.743Z,-0.92
2023-01-29T03:39:15.289Z,-1.07
2023-01-29T03:42:03.159Z,-1.12
2023-01-29T03:44:48.064Z,-1.03
2023-01-29T03:47:47.773Z,-1.02
2023-01-29T03:50:40.568Z,-0.99
2023-01-29T03:53:29.982Z,-0.99
2023-01-29T03:56:04.509Z,-0.96
2023-01-29T03:58:39.383Z,-0.93
2023-01-29T04:01:11.441Z,-1.00
2023-01-29T04:03:41.988Z,-0.85
2023-01-29T04:06:20.408Z,-0.94
2023-01-29T04:09:03.252Z,-1.00
2023-01-29T04:11:31.035Z,-0.87
2023-01-29T04:13:58.194Z,-0.89
2023-01-29T04:16:38.966Z,-0.82
2023-01-29T04:19:05.968Z,-0.92
2023-01-29T04:21:32.627Z,-0.87
2023-01-29T04:23:58.980Z,-0.94
2023-01-29T04:26:42.346Z,-0.88
2023-01-29T04:29:14.403Z,-0.84
2023-01-29T04:31:55.616Z,-0.75
2023-01-29T04:34:41.756Z,-0.94
2023-01-29T04:37:23.087Z,-1.03
2023-01-29T04:39:58.820Z,-1.05
2023-01-29T04:42:40.315Z,-1.08
2023-01-29T04:45:28.724Z,-1.09
2023-01-29T04:48:04.104Z,-0.99
2023-01-29T04:50:42.005Z,-1.11
2023-01-29T04:53:20.537Z,-1.12
2023-01-29T04:55:55.052Z,-1.02
2023-01-29T04:58:36.974Z,-1.08
2023-01-29T05:01:06.667Z,-0.98
2023-01-29T05:03:36.215Z,-0.96
2023-01-29T05:06:03.935Z,-1.08
2023-01-29T05:08:32.537Z,-0.94
2023-01-29T05:10:59.607Z,-0.96
2023-01-29T05:13:28.721Z,-0.81
2023-01-29T05:16:16.962Z,-0.78
2023-01-29T05:18:43.445Z,-0.94
2023-01-29T05:21:09.990Z,-0.88
2023-01-29T05:23:36.842Z,-0.75
2023-01-29T05:26:03.727Z,-0.81
2023-01-29T05:28:30.230Z,-0.78
2023-01-29T05:30:57.576Z,-0.70
2023-01-29T05:33:29.306Z,-0.76
2023-01-29T05:35:58.084Z,-0.80
2023-01-29T05:38:24.860Z,-0.84
2023-01-29T05:40:51.264Z,-0.79
2023-01-29T05:43:23.528Z,-0.70
2023-01-29T05:45:58.415Z,-0.72
2023-01-29T05:48:26.664Z,-0.84
2023-01-29T05:50:53.013Z,-0.75
2023-01-29T05:53:19.402Z,-0.79
2023-01-29T05:55:48.609Z,-0.73
2023-01-29T05:58:14.964Z,-0.73
2023-01-29T06:00:41.541Z,-0.75
2023-01-29T06:03:11.940Z,-0.92
2023-01-29T06:05:43.238Z,-0.85
2023-01-29T06:08:11.736Z,-0.81
2023-01-29T06:10:38.141Z,-0.84
2023-01-29T06:13:04.554Z,-0.99
2023-01-29T06:15:30.864Z,-0.98
2023-01-29T06:17:57.407Z,-1.01
2023-01-29T06:20:24.448Z,-0.97
2023-01-29T06:22:50.808Z,-1.01
2023-01-29T06:25:17.209Z,-0.98
2023-01-29T06:27:43.511Z,-0.97
2023-01-29T06:30:10.392Z,-1.03
2023-01-29T06:32:36.782Z,-0.99
2023-01-29T06:35:03.446Z,-0.91
2023-01-29T06:37:29.771Z,-0.88
2023-01-29T06:39:56.095Z,-0.93
2023-01-29T06:42:22.383Z,-0.87
2023-01-29T06:44:48.696Z,-0.79
2023-01-29T06:47:15.051Z,-0.84
2023-01-29T06:49:41.433Z,-0.88
2023-01-29T06:52:07.718Z,-1.01
2023-01-29T06:54:34.044Z,-1.04
2023-01-29T06:57:00.345Z,-1.13
2023-01-29T06:59:26.653Z,-1.04
2023-01-29T07:01:53.008Z,-1.11
2023-01-29T07:04:19.428Z,-1.03
2023-01-29T07:06:45.807Z,-1.07
2023-01-29T07:09:13.144Z,-1.18
2023-01-29T07:11:40.147Z,-1.13
2023-01-29T07:14:06.766Z,-1.21
2023-01-29T07:16:33.318Z,-1.13
2023-01-29T07:18:59.690Z,-1.16
2023-01-29T07:21:26.034Z,-1.16
2023-01-29T07:23:53.359Z,-1.05
2023-01-29T07:26:20.239Z,-1.07
2023-01-29T07:28:46.814Z,-1.12
2023-01-29T07:31:14.010Z,-1.20
2023-01-29T07:33:42.804Z,-1.02
2023-01-29T07:36:10.465Z,-0.96
2023-01-29T07:38:37.378Z,-0.91
2023-01-29T07:41:03.915Z,-0.80
2023-01-29T07:43:31.960Z,-0.82
2023-01-29T07:46:02.424Z,-0.84
2023-01-29T07:48:28.774Z,-0.87
2023-01-29T07:50:56.460Z,-0.94
2023-01-29T07:53:22.959Z,-0.98
2023-01-29T07:55:49.293Z,-0.98
2023-01-29T07:58:15.628Z,-0.93
2023-01-29T08:00:41.969Z,-0.89
2023-01-29T08:03:12.437Z,-0.89
2023-01-29T08:05:38.775Z,-0.71
2023-01-29T08:08:07.334Z,-0.56
2023-01-29T08:10:38.340Z,-0.58
2023-01-29T08:13:05.661Z,-0.41
2023-01-29T08:15:32.368Z,-0.36
2023-01-29T08:17:58.865Z,-0.38
2023-01-29T08:20:25.617Z,-0.46
2023-01-29T08:22:59.173Z,-0.48
2023-01-29T08:25:25.809Z,-0.54
2023-01-29T08:27:52.343Z,-0.52
2023-01-29T08:30:18.746Z,-0.40
2023-01-29T08:32:45.092Z,-0.41
2023-01-29T08:35:11.400Z,-0.42
2023-01-29T08:37:37.740Z,-0.54
2023-01-29T08:40:04.521Z,-0.54
2023-01-29T08:42:30.851Z,-0.47
2023-01-29T08:44:57.163Z,-0.41
2023-01-29T08:47:23.468Z,-0.52
2023-01-29T08:49:49.786Z,-0.43
2023-01-29T08:52:16.100Z,-0.39
2023-01-29T08:54:42.419Z,-0.29
2023-01-29T08:57:08.755Z,-0.02
2023-01-29T08:59:35.080Z,0.04
2023-01-29T09:02:01.567Z,0.33
2023-01-29T09:04:27.974Z,0.40
2023-01-29T09:06:54.477Z,0.57
2023-01-29T09:09:20.819Z,0.69
2023-01-29T09:11:47.118Z,0.73
2023-01-29T09:14:13.411Z,0.68
2023-01-29T09:16:39.843Z,0.58
2023-01-29T09:19:06.153Z,0.37
2023-01-29T09:21:32.742Z,0.43
2023-01-29T09:23:59.068Z,0.44
2023-01-29T09:26:25.609Z,0.48
2023-01-29T09:28:51.930Z,0.48
2023-01-29T09:31:18.359Z,0.51
2023-01-29T09:33:44.740Z,0.46
2023-01-29T09:36:11.036Z,0.52
2023-01-29T09:38:37.358Z,0.63
2023-01-29T09:41:19.209Z,0.83
2023-01-29T09:43:57.250Z,0.72
2023-01-29T09:46:35.316Z,0.67
2023-01-29T09:49:08.825Z,0.59
2023-01-29T09:51:41.660Z,0.65
2023-01-29T09:54:25.772Z,0.33
2023-01-29T09:56:57.193Z,0.44
2023-01-29T09:59:27.387Z,0.47
2023-01-29T10:02:31.097Z,0.57
2023-01-29T10:05:12.119Z,0.49
2023-01-29T10:08:03.477Z,0.61
2023-01-29T10:10:44.100Z,0.77
2023-01-29T10:13:41.648Z,0.84
2023-01-29T10:16:41.499Z,0.86
2023-01-29T10:19:41.072Z,0.81
2023-01-29T10:22:45.236Z,0.72
2023-01-29T10:25:15.777Z,0.84
2023-01-29T10:27:48.413Z,1.01
2023-01-29T10:30:33.012Z,0.98
2023-01-29T10:33:03.689Z,1.00
2023-01-29T10:35:34.001Z,0.86
2023-01-29T10:38:18.441Z,0.89
2023-01-29T10:40:55.798Z,0.67
2023-01-29T10:43:54.266Z,0.52
2023-01-29T10:46:46.402Z,0.62
2023-01-29T10:49:35.261Z,0.64
2023-01-29T10:52:15.892Z,0.60
2023-01-29T10:55:07.879Z,0.66
2023-01-29T10:58:17.919Z,0.63
2023-01-29T11:00:44.303Z,0.68
2023-01-29T11:03:29.238Z,0.78
2023-01-29T11:05:55.673Z,0.85
2023-01-29T11:08:26.787Z,0.77
2023-01-29T11:11:09.329Z,0.74
2023-01-29T11:13:58.929Z,0.70
2023-01-29T11:16:29.753Z,0.83
2023-01-29T11:18:59.164Z,0.84
2023-01-29T11:21:27.466Z,0.82
2023-01-29T11:24:14.667Z,0.83
2023-01-29T11:26:43.433Z,0.94
2023-01-29T11:29:28.791Z,0.92
2023-01-29T11:31:56.708Z,0.95
2023-01-29T11:34:24.899Z,0.83
2023-01-29T11:36:59.201Z,1.00
2023-01-29T11:39:27.453Z,0.86
2023-01-29T11:42:01.895Z,0.96
2023-01-29T11:44:31.529Z,0.99
2023-01-29T11:47:11.341Z,0.96
2023-01-29T11:49:38.971Z,1.02
2023-01-29T11:52:08.920Z,0.99
2023-01-29T11:54:49.043Z,1.20
2023-01-29T11:57:35.553Z,1.21
2023-01-29T12:00:06.980Z,1.11
2023-01-29T12:02:41.844Z,1.11
2023-01-29T12:05:15.984Z,1.07
2023-01-29T12:07:45.151Z,1.16
2023-01-29T12:10:31.194Z,1.22
2023-01-29T12:13:09.421Z,1.25
2023-01-29T12:15:37.220Z,1.18
2023-01-29T12:18:18.626Z,1.14
2023-01-29T12:20:47.698Z,1.29
2023-01-29T12:23:41.334Z,1.31
2023-01-29T12:26:13.084Z,1.17
2023-01-29T12:28:53.916Z,1.17
2023-01-29T12:31:29.198Z,1.29
2023-01-29T12:34:26.831Z,1.42
2023-01-29T12:37:02.813Z,1.40
2023-01-29T12:39:29.154Z,1.65
2023-01-29T12:42:04.649Z,1.57
2023-01-29T12:44:36.738Z,1.66
2023-01-29T12:47:07.304Z,1.68
2023-01-29T12:49:38.924Z,1.60
2023-01-29T12:52:15.834Z,1.69
2023-01-29T12:54:49.942Z,1.72
2023-01-29T12:57:25.558Z,1.51
2023-01-29T13:00:19.258Z,1.57
2023-01-29T13:03:08.676Z,1.60
2023-01-29T13:05:48.595Z,1.73
2023-01-29T13:08:20.776Z,1.73
2023-01-29T13:10:53.617Z,1.73
2023-01-29T13:13:32.847Z,1.66
2023-01-29T13:16:00.212Z,1.52
2023-01-29T13:18:41.446Z,1.43
2023-01-29T13:21:13.617Z,1.46
2023-01-29T13:23:47.781Z,1.52
2023-01-29T13:26:18.384Z,1.56
2023-01-29T13:28:45.346Z,1.49
2023-01-29T13:31:13.494Z,1.48
2023-01-29T13:33:43.108Z,1.53
2023-01-29T13:36:24.031Z,1.48
2023-01-29T13:39:01.902Z,1.41
2023-01-29T13:41:41.772Z,1.46
2023-01-29T13:44:28.011Z,1.30
2023-01-29T13:47:03.721Z,1.35
2023-01-29T13:49:47.575Z,1.42
2023-01-29T13:52:21.229Z,1.33
2023-01-29T13:54:55.610Z,1.27
2023-01-29T13:57:35.362Z,1.37
2023-01-29T14:00:01.767Z,1.38
2023-01-29T14:02:29.679Z,1.51
2023-01-29T14:05:30.437Z,1.44
2023-01-29T14:08:01.994Z,1.40
2023-01-29T14:10:30.743Z,1.51
2023-01-29T14:13:15.511Z,1.37
2023-01-29T14:15:41.837Z,1.29
2023-01-29T14:18:08.112Z,1.27
2023-01-29T14:20:53.069Z,1.20
2023-01-29T14:23:33.480Z,1.15
2023-01-29T14:26:02.042Z,1.21
2023-01-29T14:28:30.736Z,1.27
2023-01-29T14:30:57.315Z,1.19
2023-01-29T14:33:41.175Z,1.12
2023-01-29T14:36:13.342Z,1.19
2023-01-29T14:38:47.617Z,1.17
2023-01-29T14:41:29.173Z,1.11
2023-01-29T14:44:33.059Z,1.06
2023-01-29T14:46:59.437Z,1.14
2023-01-29T14:49:48.683Z,1.03
2023-01-29T14:52:16.555Z,0.99
2023-01-29T14:54:43.301Z,0.95
2023-01-29T14:57:14.860Z,0.99
2023-01-29T14:59:57.656Z,1.07
2023-01-29T15:02:37.704Z,1.09
2023-01-29T15:05:11.283Z,1.16
2023-01-29T15:08:00.559Z,1.04
2023-01-29T15:10:55.835Z,0.89
2023-01-29T15:13:41.907Z,0.80
2023-01-29T15:16:17.468Z,0.80
2023-01-29T15:18:43.854Z,0.83
2023-01-29T15:21:19.108Z,0.89
2023-01-29T15:23:46.630Z,0.96
2023-01-29T15:26:19.630Z,0.86
2023-01-29T15:29:02.141Z,0.92
2023-01-29T15:31:30.341Z,0.79
2023-01-29T15:33:56.939Z,0.72
2023-01-29T15:36:28.137Z,0.77
2023-01-29T15:39:26.882Z,0.87
2023-01-29T15:42:11.983Z,0.90
2023-01-29T15:44:44.882Z,0.74
2023-01-29T15:47:12.565Z,0.71
2023-01-29T15:49:40.231Z,0.68
2023-01-29T15:52:17.883Z,0.83
2023-01-29T15:54:44.595Z,0.76
2023-01-29T15:57:21.335Z,0.71
2023-01-29T15:59:48.151Z,0.73
2023-01-29T16:02:35.632Z,0.76
2023-01-29T16:05:03.486Z,0.73
2023-01-29T16:07:30.074Z,0.73
2023-01-29T16:09:57.441Z,0.82
2023-01-29T16:12:24.297Z,0.73
2023-01-29T16:14:51.319Z,0.78
2023-01-29T16:17:30.872Z,0.71
2023-01-29T16:20:02.520Z,0.74
2023-01-29T16:22:35.194Z,0.76
2023-01-29T16:25:04.125Z,0.74
2023-01-29T16:27:31.631Z,0.67
2023-01-29T16:29:58.235Z,0.69
2023-01-29T16:32:24.605Z,0.70
2023-01-29T16:34:57.203Z,0.62
2023-01-29T16:37:27.836Z,0.64
2023-01-29T16:39:54.811Z,0.66
2023-01-29T16:42:31.458Z,0.69
2023-01-29T16:45:02.189Z,0.66
2023-01-29T16:47:34.773Z,0.75
2023-01-29T16:50:22.875Z,0.84
2023-01-29T16:53:22.178Z,0.76
2023-01-29T16:55:52.311Z,0.68
2023-01-29T16:58:26.439Z,0.74
2023-01-29T17:00:56.321Z,0.73
2023-01-29T17:03:27.158Z,0.78
2023-01-29T17:05:53.968Z,0.72
2023-01-29T17:08:32.156Z,0.71
2023-01-29T17:10:59.754Z,0.80
2023-01-29T17:13:41.589Z,0.89
2023-01-29T17:16:23.091Z,0.78
2023-01-29T17:18:49.568Z,0.77
2023-01-29T17:21:15.926Z,0.66
2023-01-29T17:23:42.266Z,0.71
2023-01-29T17:26:12.650Z,0.81
2023-01-29T17:28:40.605Z,0.87
2023-01-29T17:31:07.450Z,0.86
2023-01-29T17:33:35.794Z,0.87
2023-01-29T17:36:02.177Z,0.92
2023-01-29T17:38:28.556Z,0.87
2023-01-29T17:41:23.503Z,0.90
2023-01-29T17:43:49.822Z,0.95
2023-01-29T17:46:17.600Z,0.76
2023-01-29T17:48:44.815Z,0.82
2023-01-29T17:51:13.676Z,0.70
2023-01-29T17:53:46.068Z,0.64
2023-01-29T17:56:24.408Z,0.59
2023-01-29T17:58:50.709Z,0.61
2023-01-29T18:01:16.996Z,0.62
2023-01-29T18:03:43.394Z,0.47
2023-01-29T18:06:11.612Z,0.38
2023-01-29T18:08:39.624Z,0.40
2023-01-29T18:11:11.153Z,0.26
2023-01-29T18:13:37.421Z,0.25
2023-01-29T18:16:03.871Z,0.22
2023-01-29T18:18:30.208Z,0.19
2023-01-29T18:20:56.513Z,0.21
2023-01-29T18:23:22.822Z,0.19
2023-01-29T18:25:49.166Z,0.12
2023-01-29T18:28:17.255Z,0.11
2023-01-29T18:30:45.160Z,0.15
2023-01-29T18:33:11.525Z,0.17
2023-01-29T18:35:37.850Z,0.19
2023-01-29T18:38:04.153Z,-0.01
2023-01-29T18:40:31.483Z,0.05
2023-01-29T18:42:57.899Z,0.06
2023-01-29T18:45:24.215Z,0.12
2023-01-29T18:47:50.517Z,0.09
2023-01-29T18:50:16.960Z,0.08
2023-01-29T18:52:44.075Z,0.09
2023-01-29T18:55:10.495Z,0.11
2023-01-29T18:58:27.466Z,0.12
2023-01-29T19:00:23.839Z,0.19
2023-01-29T19:02:50.245Z,0.24
2023-01-29T19:05:17.185Z,0.17
2023-01-29T19:07:43.719Z,0.17
2023-01-29T19:10:10.664Z,0.16
2023-01-29T19:12:37.001Z,0.22
2023-01-29T19:15:03.469Z,0.20
2023-01-29T19:17:29.866Z,0.30
2023-01-29T19:19:56.237Z,0.15
2023-01-29T19:22:22.608Z,0.15
2023-01-29T19:24:48.923Z,0.10
2023-01-29T19:27:15.215Z,0.16
2023-01-29T19:29:41.546Z,0.08
2023-01-29T19:32:07.832Z,0.09
2023-01-29T19:34:34.191Z,0.09
2023-01-29T19:37:00.492Z,0.05
2023-01-29T19:39:26.800Z,0.02
2023-01-29T19:41:53.111Z,0.05
2023-01-29T19:44:19.427Z,0.06
2023-01-29T19:46:45.728Z,0.09
2023-01-29T19:49:12.120Z,0.17
2023-01-29T19:51:38.432Z,0.16
2023-01-29T19:54:04.744Z,0.21
2023-01-29T19:56:31.109Z,0.25
2023-01-29T19:58:57.492Z,0.22
2023-01-29T20:01:24.091Z,0.15
2023-01-29T20:03:51.005Z,0.16
2023-01-29T20:06:22.057Z,0.26
2023-01-29T20:08:48.380Z,0.32
2023-01-29T20:11:16.470Z,0.23
2023-01-29T20:13:43.138Z,0.29
2023-01-29T20:16:09.503Z,0.26
2023-01-29T20:18:35.828Z,0.38
2023-01-29T20:21:07.296Z,0.43
2023-01-29T20:23:38.108Z,0.45
2023-01-29T20:26:06.430Z,0.51
2023-01-29T20:28:33.004Z,0.56
2023-01-29T20:30:59.390Z,0.62
2023-01-29T20:33:26.465Z,0.64
2023-01-29T20:35:54.549Z,0.57
2023-01-29T20:38:21.067Z,0.59
2023-01-29T20:40:47.355Z,0.62
2023-01-29T20:43:13.680Z,0.56
2023-01-29T20:45:40.097Z,0.69
2023-01-29T20:48:06.776Z,0.62
2023-01-29T20:50:34.544Z,0.60
2023-01-29T20:53:01.353Z,0.73
2023-01-29T20:55:27.999Z,0.81
2023-01-29T20:58:06.446Z,0.77
2023-01-29T21:00:33.430Z,0.71
2023-01-29T21:02:59.819Z,0.69
2023-01-29T21:05:26.146Z,0.75
2023-01-29T21:07:52.474Z,0.86
2023-01-29T21:10:19.155Z,0.92
2023-01-29T21:12:45.560Z,1.01
2023-01-29T21:15:11.862Z,0.83
2023-01-29T21:17:38.252Z,0.83
2023-01-29T21:20:04.888Z,0.90
2023-01-29T21:22:31.522Z,1.08
2023-01-29T21:24:57.849Z,1.16
2023-01-29T21:27:25.029Z,1.03
2023-01-29T21:29:51.502Z,1.00
2023-01-29T21:32:17.880Z,1.10
2023-01-29T21:34:44.307Z,0.97
2023-01-29T21:37:10.652Z,0.99
2023-01-29T21:39:36.978Z,0.95
2023-01-29T21:42:03.464Z,0.99
2023-01-29T21:44:29.933Z,1.01
2023-01-29T21:46:56.390Z,1.03
2023-01-29T21:49:23.199Z,1.01
2023-01-29T21:51:49.551Z,1.08
2023-01-29T21:54:16.133Z,1.08
2023-01-29T21:56:42.566Z,1.22
2023-01-29T21:59:09.265Z,1.15
2023-01-29T22:01:36.928Z,1.09
2023-01-29T22:04:04.729Z,1.07
2023-01-29T22:06:31.035Z,1.16
2023-01-29T22:08:57.507Z,1.21
2023-01-29T22:11:23.941Z,1.20
2023-01-29T22:13:50.250Z,1.30
2023-01-29T22:16:16.543Z,1.27
2023-01-29T22:18:42.859Z,1.24
2023-01-29T22:21:09.203Z,1.38
2023-01-29T22:23:35.541Z,1.41
2023-01-29T22:26:06.473Z,1.27
2023-01-29T22:28:32.854Z,1.37
2023-01-29T22:31:03.000Z,1.42
2023-01-29T22:33:29.308Z,1.48
2023-01-29T22:35:56.309Z,1.50
2023-01-29T22:38:23.253Z,1.49
2023-01-29T22:40:54.023Z,1.45
2023-01-29T22:43:20.883Z,1.42
2023-01-29T22:45:47.302Z,1.42
2023-01-29T22:48:14.304Z,1.41
2023-01-29T22:50:40.949Z,1.42
2023-01-29T22:53:07.375Z,1.34
2023-01-29T22:55:33.681Z,1.49
2023-01-29T22:58:00.684Z,1.55
2023-01-29T23:00:26.998Z,1.43
2023-01-29T23:02:53.298Z,1.44
2023-01-29T23:05:19.586Z,1.39
2023-01-29T23:07:45.946Z,1.49
2023-01-29T23:10:16.212Z,1.42
2023-01-29T23:12:42.722Z,1.39
2023-01-29T23:15:09.333Z,1.47
2023-01-29T23:17:35.664Z,1.41
2023-01-29T23:20:01.976Z,1.52
2023-01-29T23:22:28.352Z,1.56
2023-01-29T23:24:54.656Z,1.52
2023-01-29T23:27:21.011Z,1.58
2023-01-29T23:29:48.386Z,1.46
2023-01-29T23:32:17.710Z,1.55
2023-01-29T23:34:44.040Z,1.58
2023-01-29T23:37:10.341Z,1.64
2023-01-29T23:39:36.717Z,1.80
2023-01-29T23:42:03.451Z,1.67
2023-01-29T23:44:29.781Z,1.68
2023-01-29T23:46:56.115Z,1.67
2023-01-29T23:49:22.617Z,1.64
2023-01-29T23:51:49.894Z,1.61
2023-01-29T23:54:17.167Z,1.80
2023-01-29T23:56:44.376Z,1.83
2023-01-29T23:59:11.069Z,1.81
